createdAt,value
2023-01-04T00:00:01.148Z,8.60
2023-01-04T00:05:05.805Z,8.20
2023-01-04T00:10:09.127Z,8.80
2023-01-04T00:15:12.288Z,8.70
2023-01-04T00:20:15.427Z,9.20
2023-01-04T00:25:18.625Z,9.60
2023-01-04T00:30:21.779Z,9.80
2023-01-04T00:35:44.726Z,9.70
2023-01-04T00:40:48.512Z,9.40
2023-01-04T00:45:51.731Z,9.00
2023-01-04T00:50:55.044Z,9.40
2023-01-04T00:56:01.889Z,9.60
2023-01-04T01:01:07.124Z,9.80
2023-01-04T01:06:10.822Z,9.60
2023-01-04T01:11:14.175Z,10.10
2023-01-04T01:16:44.400Z,10.50
2023-01-04T01:21:44.406Z,9.40
2023-01-04T01:26:47.592Z,9.50
2023-01-04T01:31:51.002Z,9.30
2023-01-04T01:36:54.408Z,9.70
2023-01-04T01:41:57.744Z,10.00
2023-01-04T01:47:01.619Z,9.90
2023-01-04T01:52:14.195Z,9.40
2023-01-04T01:57:22.775Z,10.30
2023-01-04T02:02:26.050Z,9.10
2023-01-04T02:07:31.517Z,9.30
2023-01-04T02:12:34.725Z,9.40
2023-01-04T02:18:21.559Z,9.80
2023-01-04T02:23:43.780Z,10.10
2023-01-04T02:28:53.022Z,10.40
2023-01-04T02:34:13.193Z,10.40
2023-01-04T02:39:54.196Z,10.70
2023-01-04T02:45:27.228Z,10.90
2023-01-04T02:50:33.856Z,11.00
2023-01-04T02:55:48.532Z,12.10
2023-01-04T03:01:46.430Z,13.00
2023-01-04T03:07:08.139Z,10.60
2023-01-04T03:12:33.530Z,12.60
2023-01-04T03:17:45.622Z,13.30
2023-01-04T03:23:16.732Z,12.10
2023-01-04T03:28:43.697Z,12.20
2023-01-04T03:34:06.200Z,12.50
2023-01-04T03:39:57.616Z,11.80
2023-01-04T03:45:35.010Z,12.30
2023-01-04T03:50:57.340Z,12.20
2023-01-04T03:56:11.094Z,13.30
2023-01-04T04:01:14.730Z,12.70
2023-01-04T04:06:48.915Z,11.90
2023-01-04T04:11:52.097Z,11.80
2023-01-04T04:16:55.335Z,12.10
2023-01-04T04:21:58.583Z,13.00
2023-01-04T04:27:01.715Z,12.20
2023-01-04T04:32:05.205Z,13.20
2023-01-04T04:37:09.546Z,13.00
2023-01-04T04:42:12.777Z,14.30
2023-01-04T04:47:15.970Z,13.60
2023-01-04T04:52:19.096Z,12.90
2023-01-04T04:57:22.374Z,12.80
2023-01-04T05:02:25.545Z,13.00
2023-01-04T05:07:28.902Z,13.60
2023-01-04T05:12:55.792Z,12.50
2023-01-04T05:18:01.578Z,13.10
2023-01-04T05:23:05.951Z,13.70
2023-01-04T05:28:09.243Z,14.70
2023-01-04T05:33:12.605Z,13.60
2023-01-04T05:38:17.089Z,12.90
2023-01-04T05:43:21.873Z,13.40
2023-01-04T05:48:25.537Z,12.90
2023-01-04T05:53:28.644Z,14.10
2023-01-04T05:58:31.742Z,14.70
2023-01-04T06:03:35.139Z,14.80
2023-01-04T06:08:38.358Z,16.30
2023-01-04T06:13:41.528Z,16.90
2023-01-04T06:18:44.658Z,16.90
2023-01-04T06:23:47.799Z,16.60
2023-01-04T06:28:50.897Z,15.10
2023-01-04T06:33:54.120Z,16.60
2023-01-04T06:38:58.936Z,14.90
2023-01-04T06:44:02.792Z,16.70
2023-01-04T06:49:05.933Z,17.00
2023-01-04T06:54:12.088Z,18.40
2023-01-04T06:59:15.264Z,18.10
2023-01-04T07:04:18.580Z,16.80
2023-01-04T07:09:21.772Z,17.50
2023-01-04T07:14:24.897Z,17.30
2023-01-04T07:19:28.120Z,17.50
2023-01-04T07:24:31.564Z,16.70
2023-01-04T07:29:34.710Z,17.80
2023-01-04T07:34:39.618Z,18.40
2023-01-04T07:39:44.140Z,22.40
2023-01-04T07:44:47.268Z,23.20
2023-01-04T07:49:50.423Z,22.40
2023-01-04T07:54:54.124Z,21.60
2023-01-04T07:59:57.293Z,23.10
2023-01-04T08:05:00.634Z,24.10
2023-01-04T08:10:04.170Z,25.20
2023-01-04T08:15:07.708Z,27.40
2023-01-04T08:20:26.575Z,26.40
2023-01-04T08:25:29.728Z,25.80
2023-01-04T08:30:38.529Z,25.80
2023-01-04T08:35:41.848Z,25.70
2023-01-04T08:41:00.360Z,25.30
2023-01-04T08:46:08.853Z,26.00
2023-01-04T08:51:15.865Z,28.90
2023-01-04T08:56:19.026Z,26.20
2023-01-04T09:01:22.339Z,26.80
2023-01-04T09:06:26.311Z,25.50
2023-01-04T09:11:29.541Z,28.90
2023-01-04T09:16:32.748Z,24.70
2023-01-04T09:21:36.198Z,23.50
2023-01-04T09:26:39.388Z,22.70
2023-01-04T09:31:42.578Z,20.80
2023-01-04T09:36:47.215Z,19.20
2023-01-04T09:42:06.139Z,19.60
2023-01-04T09:47:19.701Z,19.10
2023-01-04T09:52:43.805Z,18.70
2023-01-04T09:57:56.540Z,19.10
2023-01-04T10:03:15.755Z,18.70
2023-01-04T10:08:20.457Z,18.50
2023-01-04T10:14:01.439Z,18.00
2023-01-04T10:19:50.487Z,17.70
2023-01-04T10:24:38.573Z,17.30
2023-01-04T10:30:07.715Z,17.00
2023-01-04T10:35:23.143Z,15.40
2023-01-04T10:40:29.489Z,16.20
2023-01-04T10:45:57.170Z,17.30
2023-01-04T10:51:09.854Z,17.20
2023-01-04T10:56:39.502Z,18.30
2023-01-04T11:01:48.754Z,18.50
2023-01-04T11:07:25.782Z,18.90
2023-01-04T11:12:29.046Z,17.50
2023-01-04T11:17:33.257Z,18.60
2023-01-04T11:22:44.345Z,18.50
2023-01-04T11:27:56.832Z,18.60
2023-01-04T11:38:12.059Z,18.40
2023-01-04T11:43:18.948Z,18.40
2023-01-04T11:48:40.834Z,19.20
2023-01-04T11:53:44.651Z,20.10
2023-01-04T11:59:19.202Z,19.10
2023-01-04T12:04:45.984Z,20.10
2023-01-04T12:09:51.914Z,22.00
2023-01-04T12:14:55.786Z,20.10
2023-01-04T12:20:10.698Z,19.60
2023-01-04T12:25:36.795Z,18.40
2023-01-04T12:30:46.499Z,19.50
2023-01-04T12:35:58.721Z,20.00
2023-01-04T12:41:02.209Z,19.20
2023-01-04T12:47:00.479Z,21.30
2023-01-04T12:52:31.993Z,19.80
2023-01-04T12:57:37.562Z,18.80
2023-01-04T13:02:52.225Z,20.10
2023-01-04T13:08:01.226Z,19.70
2023-01-04T13:13:19.555Z,27.60
2023-01-04T13:18:41.805Z,21.80
2023-01-04T13:23:54.932Z,19.50
2023-01-04T13:29:20.758Z,18.90
2023-01-04T13:34:34.633Z,22.20
2023-01-04T13:39:47.490Z,24.30
2023-01-04T13:50:31.945Z,21.00
2023-01-04T13:55:57.031Z,58.10
2023-01-04T14:01:06.739Z,19.10
2023-01-04T14:06:50.508Z,51.30
2023-01-04T14:12:26.625Z,27.10
2023-01-04T14:17:48.647Z,21.70
2023-01-04T14:22:57.240Z,41.00
2023-01-04T14:28:19.186Z,31.00
2023-01-04T14:33:30.308Z,18.70
2023-01-04T14:38:57.553Z,20.40
2023-01-04T14:44:00.578Z,17.30
2023-01-04T14:49:04.190Z,22.00
2023-01-04T14:55:12.865Z,17.20
2023-01-04T15:00:39.871Z,16.90
2023-01-04T15:05:51.908Z,16.30
2023-01-04T15:11:20.063Z,22.00
2023-01-04T15:16:23.416Z,20.40
2023-01-04T15:21:26.708Z,23.40
2023-01-04T15:26:30.590Z,25.30
2023-01-04T15:31:38.940Z,21.30
2023-01-04T15:36:43.050Z,22.10
2023-01-04T15:42:04.981Z,22.90
2023-01-04T15:47:08.241Z,21.10
2023-01-04T15:52:11.651Z,22.60
2023-01-04T15:57:14.811Z,14.70
2023-01-04T16:02:18.104Z,14.20
2023-01-04T16:07:21.610Z,13.90
2023-01-04T16:12:56.674Z,12.90
2023-01-04T16:18:00.272Z,11.70
2023-01-04T16:23:03.470Z,9.60
2023-01-04T16:28:40.080Z,10.10
2023-01-04T16:47:10.561Z,7.80
2023-01-04T16:52:16.439Z,8.30
2023-01-04T16:58:19.317Z,7.70
2023-01-04T17:30:43.215Z,7.90
2023-01-04T17:36:23.254Z,7.30
2023-01-04T17:41:28.576Z,7.60
2023-01-04T17:46:34.832Z,7.20
2023-01-04T17:51:40.127Z,8.00
2023-01-04T17:56:43.476Z,8.30
2023-01-04T18:01:46.729Z,7.80
2023-01-04T18:06:49.983Z,7.60
2023-01-04T18:11:53.397Z,7.60
2023-01-04T18:16:57.636Z,7.50
2023-01-04T18:22:01.825Z,8.10
2023-01-04T18:27:23.795Z,7.50
2023-01-04T18:32:28.154Z,7.40
2023-01-04T18:37:35.977Z,7.00
2023-01-04T18:42:39.213Z,7.20
2023-01-04T18:47:43.000Z,7.00
2023-01-04T18:52:46.206Z,7.90
2023-01-04T18:57:49.845Z,7.00
2023-01-04T19:02:53.097Z,7.00
2023-01-04T19:07:56.668Z,5.80
2023-01-04T19:12:59.812Z,6.40
2023-01-04T19:18:02.954Z,6.70
2023-01-04T19:23:07.835Z,6.40
2023-01-04T19:28:12.538Z,6.50
2023-01-04T19:33:16.500Z,6.50
2023-01-04T19:38:19.746Z,6.60
2023-01-04T19:43:22.971Z,9.00
2023-01-04T19:48:26.623Z,7.70
2023-01-04T19:53:29.894Z,7.40
2023-01-04T19:58:33.137Z,10.20
2023-01-04T20:03:36.372Z,7.90
2023-01-04T20:08:40.683Z,6.90
2023-01-04T20:13:43.843Z,7.20
2023-01-04T20:18:47.099Z,6.60
2023-01-04T20:23:50.576Z,5.90
2023-01-04T20:28:53.708Z,5.50
2023-01-04T20:33:57.229Z,5.80
2023-01-04T20:39:02.551Z,5.60
2023-01-04T20:44:05.776Z,6.30
2023-01-04T20:49:08.978Z,5.70
2023-01-04T20:54:12.211Z,5.40
2023-01-04T20:59:15.336Z,5.70
2023-01-04T21:04:18.585Z,5.70
2023-01-04T21:09:21.765Z,5.10
2023-01-04T21:14:25.166Z,5.90
2023-01-04T21:19:28.313Z,5.70
2023-01-04T21:24:33.620Z,5.70
2023-01-04T21:29:36.815Z,6.80
2023-01-04T21:34:40.051Z,6.20
2023-01-04T21:39:43.170Z,5.50
2023-01-04T21:44:46.291Z,5.80
2023-01-04T21:49:50.810Z,5.80
2023-01-04T21:54:54.195Z,5.80
2023-01-04T21:59:57.389Z,5.60
2023-01-04T22:05:00.989Z,5.20
2023-01-04T22:10:04.752Z,4.90
2023-01-04T22:15:08.342Z,5.20
2023-01-04T22:20:11.788Z,5.50
2023-01-04T22:25:15.225Z,5.10
2023-01-04T22:30:18.437Z,4.80
2023-01-04T22:35:22.411Z,4.20
2023-01-04T22:40:25.550Z,4.60
2023-01-04T22:45:28.739Z,4.30
2023-01-04T22:50:32.218Z,4.50
2023-01-04T22:56:17.010Z,4.50
2023-01-04T23:01:05.719Z,4.60
2023-01-04T23:06:12.264Z,4.50
2023-01-04T23:11:17.642Z,4.40
2023-01-04T23:16:26.184Z,4.60
2023-01-04T23:21:34.634Z,4.60
2023-01-04T23:26:37.931Z,5.30
2023-01-04T23:31:41.584Z,5.30
2023-01-04T23:36:44.804Z,5.20
2023-01-04T23:41:48.163Z,5.50
2023-01-04T23:46:57.450Z,5.30
2023-01-04T23:52:01.518Z,4.90
2023-01-04T23:57:05.062Z,5.60
